createdAt,value
2023-01-11T00:02:07.114Z,100442.94
2023-01-11T00:04:33.919Z,100440.75
2023-01-11T00:07:00.709Z,100451.03
2023-01-11T00:09:27.560Z,100437.06
2023-01-11T00:11:55.183Z,100434.53
2023-01-11T00:14:22.116Z,100442.00
2023-01-11T00:16:48.823Z,100434.28
2023-01-11T00:19:15.486Z,100435.63
2023-01-11T00:21:42.248Z,100434.06
2023-01-11T00:24:09.067Z,100427.97
2023-01-11T00:26:36.277Z,100434.75
2023-01-11T00:29:03.000Z,100429.00
2023-01-11T00:31:29.846Z,100425.72
2023-01-11T00:33:57.299Z,100427.88
2023-01-11T00:36:24.373Z,100421.97
2023-01-11T00:38:55.824Z,100417.13
2023-01-11T00:41:42.254Z,100422.69
2023-01-11T00:44:29.094Z,100418.41
2023-01-11T00:47:14.481Z,100413.13
2023-01-11T00:49:41.926Z,100410.34
2023-01-11T00:52:09.812Z,100403.25
2023-01-11T00:54:37.859Z,100397.63
2023-01-11T00:57:06.458Z,100410.13
2023-01-11T00:59:37.274Z,100398.63
2023-01-11T01:02:04.465Z,100399.97
2023-01-11T01:04:31.433Z,100395.19
2023-01-11T01:06:58.252Z,100391.88
2023-01-11T01:09:25.307Z,100392.75
2023-01-11T01:11:52.275Z,100390.75
2023-01-11T01:14:31.398Z,100385.75
2023-01-11T01:17:03.923Z,100382.34
2023-01-11T01:19:31.449Z,100390.19
2023-01-11T01:21:59.188Z,100398.09
2023-01-11T01:24:28.777Z,100391.91
2023-01-11T01:26:56.726Z,100397.50
2023-01-11T01:29:24.173Z,100383.59
2023-01-11T01:31:51.144Z,100390.47
2023-01-11T01:34:17.960Z,100391.41
2023-01-11T01:36:44.928Z,100385.38
2023-01-11T01:39:12.756Z,100383.72
2023-01-11T01:41:39.731Z,100393.28
2023-01-11T01:44:44.956Z,100394.19
2023-01-11T01:47:12.117Z,100400.09
2023-01-11T01:49:39.529Z,100390.53
2023-01-11T01:52:06.597Z,100404.50
2023-01-11T01:54:36.247Z,100394.31
2023-01-11T01:57:06.896Z,100396.19
2023-01-11T01:59:34.219Z,100399.41
2023-01-11T02:02:01.318Z,100392.72
2023-01-11T02:04:31.785Z,100402.91
2023-01-11T02:07:09.686Z,100395.91
2023-01-11T02:09:49.115Z,100401.47
2023-01-11T02:12:16.482Z,100400.44
2023-01-11T02:14:43.741Z,100400.91
2023-01-11T02:17:10.806Z,100393.00
2023-01-11T02:19:43.393Z,100393.75
2023-01-11T02:22:52.933Z,100391.16
2023-01-11T02:25:44.186Z,100395.00
2023-01-11T02:28:17.216Z,100393.94
2023-01-11T02:31:35.356Z,100386.31
2023-01-11T02:34:41.951Z,100382.19
2023-01-11T02:37:28.716Z,100375.44
2023-01-11T02:40:18.224Z,100365.63
2023-01-11T02:43:39.326Z,100376.91
2023-01-11T02:46:13.456Z,100369.19
2023-01-11T02:48:58.494Z,100367.59
2023-01-11T02:51:35.993Z,100376.94
2023-01-11T02:54:06.333Z,100367.94
2023-01-11T02:56:37.794Z,100365.59
2023-01-11T02:59:05.802Z,100370.47
2023-01-11T03:01:32.650Z,100363.88
2023-01-11T03:03:59.676Z,100362.72
2023-01-11T03:06:30.960Z,100362.22
2023-01-11T03:09:00.772Z,100354.22
2023-01-11T03:12:18.578Z,100360.41
2023-01-11T03:15:04.136Z,100366.19
2023-01-11T03:17:30.940Z,100364.03
2023-01-11T03:20:07.616Z,100346.28
2023-01-11T03:22:43.771Z,100355.06
2023-01-11T03:25:21.287Z,100356.47
2023-01-11T03:27:53.897Z,100355.34
2023-01-11T03:30:23.641Z,100357.69
2023-01-11T03:32:55.271Z,100359.63
2023-01-11T03:35:40.381Z,100359.88
2023-01-11T03:38:16.638Z,100360.78
2023-01-11T03:40:47.495Z,100358.75
2023-01-11T03:43:14.980Z,100362.75
2023-01-11T03:46:01.075Z,100366.34
2023-01-11T03:48:32.566Z,100356.88
2023-01-11T03:51:00.241Z,100364.97
2023-01-11T03:53:30.885Z,100364.78
2023-01-11T03:55:59.166Z,100370.28
2023-01-11T03:58:28.286Z,100364.84
2023-01-11T04:00:59.500Z,100373.47
2023-01-11T04:03:27.291Z,100373.00
2023-01-11T04:05:58.782Z,100371.59
2023-01-11T04:08:25.960Z,100379.84
2023-01-11T04:10:52.874Z,100373.78
2023-01-11T04:13:19.751Z,100372.91
2023-01-11T04:15:46.501Z,100374.13
2023-01-11T04:18:13.280Z,100384.78
2023-01-11T04:20:40.686Z,100378.78
2023-01-11T04:23:10.352Z,100389.59
2023-01-11T04:25:37.636Z,100405.19
2023-01-11T04:28:04.410Z,100387.75
2023-01-11T04:30:31.203Z,100384.00
2023-01-11T04:32:59.255Z,100392.38
2023-01-11T04:35:27.046Z,100384.72
2023-01-11T04:37:57.438Z,100383.31
2023-01-11T04:40:25.278Z,100386.50
2023-01-11T04:42:52.105Z,100387.97
2023-01-11T04:45:19.090Z,100393.41
2023-01-11T04:47:45.839Z,100407.22
2023-01-11T04:50:12.923Z,100431.00
2023-01-11T04:52:41.713Z,100435.59
2023-01-11T04:55:09.290Z,100411.06
2023-01-11T04:57:36.080Z,100395.69
2023-01-11T05:00:05.104Z,100382.59
2023-01-11T05:02:31.777Z,100394.78
2023-01-11T05:04:58.589Z,100404.22
2023-01-11T05:07:25.227Z,100421.75
2023-01-11T05:09:52.014Z,100416.38
2023-01-11T05:12:18.859Z,100434.03
2023-01-11T05:14:45.679Z,100422.28
2023-01-11T05:17:16.727Z,100415.38
2023-01-11T05:19:43.690Z,100426.91
2023-01-11T05:22:10.563Z,100436.25
2023-01-11T05:24:37.294Z,100442.91
2023-01-11T05:27:04.124Z,100445.47
2023-01-11T05:29:30.901Z,100457.41
2023-01-11T05:31:57.622Z,100443.00
2023-01-11T05:34:24.387Z,100441.03
2023-01-11T05:36:51.200Z,100452.38
2023-01-11T05:39:17.987Z,100468.41
2023-01-11T05:41:44.665Z,100458.53
2023-01-11T05:44:31.494Z,100471.78
2023-01-11T05:46:58.598Z,100478.59
2023-01-11T05:49:25.515Z,100470.28
2023-01-11T05:51:52.283Z,100472.59
2023-01-11T05:54:21.696Z,100468.38
2023-01-11T05:56:48.797Z,100477.03
2023-01-11T05:59:15.843Z,100491.66
2023-01-11T06:01:43.218Z,100496.59
2023-01-11T06:04:10.226Z,100494.81
2023-01-11T06:06:37.195Z,100491.03
2023-01-11T06:09:04.199Z,100484.69
2023-01-11T06:11:30.985Z,100492.22
2023-01-11T06:13:57.897Z,100488.78
2023-01-11T06:16:24.802Z,100491.63
2023-01-11T06:18:53.478Z,100513.16
2023-01-11T06:21:20.939Z,100520.72
2023-01-11T06:23:50.844Z,100527.38
2023-01-11T06:26:20.268Z,100508.59
2023-01-11T06:28:47.706Z,100513.81
2023-01-11T06:31:17.105Z,100525.78
2023-01-11T06:33:44.896Z,100523.28
2023-01-11T06:36:12.872Z,100523.88
2023-01-11T06:38:39.898Z,100529.97
2023-01-11T06:41:08.489Z,100542.66
2023-01-11T06:43:37.232Z,100561.50
2023-01-11T06:46:04.151Z,100557.19
2023-01-11T06:48:30.812Z,100561.75
2023-01-11T06:50:58.466Z,100562.06
2023-01-11T06:53:28.434Z,100568.06
2023-01-11T06:55:57.420Z,100571.19
2023-01-11T06:58:25.303Z,100576.69
2023-01-11T07:00:53.583Z,100562.94
2023-01-11T07:03:21.122Z,100583.16
2023-01-11T07:05:48.045Z,100573.41
2023-01-11T07:08:15.179Z,100580.81
2023-01-11T07:10:43.712Z,100595.06
2023-01-11T07:13:16.337Z,100599.44
2023-01-11T07:15:51.009Z,100613.78
2023-01-11T07:18:19.377Z,100622.06
2023-01-11T07:20:46.573Z,100609.91
2023-01-11T07:23:13.904Z,100618.25
2023-01-11T07:25:41.300Z,100606.28
2023-01-11T07:28:09.008Z,100609.53
2023-01-11T07:30:55.541Z,100611.03
2023-01-11T07:33:23.474Z,100631.09
2023-01-11T07:35:50.419Z,100628.16
2023-01-11T07:38:17.293Z,100622.50
2023-01-11T07:40:44.157Z,100642.91
2023-01-11T07:43:14.621Z,100646.94
2023-01-11T07:45:46.177Z,100667.63
2023-01-11T07:48:15.174Z,100665.31
2023-01-11T07:50:44.566Z,100672.56
2023-01-11T07:53:12.938Z,100685.00
2023-01-11T07:55:40.627Z,100693.38
2023-01-11T07:58:08.969Z,100711.44
2023-01-11T08:00:35.818Z,100724.03
2023-01-11T08:03:03.335Z,100729.28
2023-01-11T08:05:30.248Z,100738.16
2023-01-11T08:07:57.077Z,100744.63
2023-01-11T08:10:24.329Z,100751.00
2023-01-11T08:13:12.050Z,100748.09
2023-01-11T08:15:47.166Z,100749.84
2023-01-11T08:18:14.365Z,100756.81
2023-01-11T08:20:41.509Z,100750.91
2023-01-11T08:23:09.973Z,100758.59
2023-01-11T08:25:37.256Z,100768.88
2023-01-11T08:28:06.110Z,100772.44
2023-01-11T08:30:33.347Z,100761.13
2023-01-11T08:33:07.415Z,100761.69
2023-01-11T08:54:11.779Z,100787.41
2023-01-11T08:56:38.984Z,100796.59
2023-01-11T08:59:06.140Z,100798.59
2023-01-11T09:01:33.667Z,100796.16
2023-01-11T09:04:09.363Z,100805.75
2023-01-11T09:06:42.564Z,100803.38
2023-01-11T09:09:11.465Z,100805.13
2023-01-11T09:11:56.888Z,100811.34
2023-01-11T09:14:25.737Z,100835.44
2023-01-11T09:16:53.620Z,100838.47
2023-01-11T09:19:21.205Z,100840.00
2023-01-11T09:21:48.390Z,100843.53
2023-01-11T09:24:15.426Z,100842.28
2023-01-11T09:26:43.584Z,100846.72
2023-01-11T09:29:11.486Z,100850.41
2023-01-11T09:31:38.622Z,100842.81
2023-01-11T09:34:07.059Z,100845.09
2023-01-11T09:36:36.162Z,100842.41
2023-01-11T09:39:07.725Z,100851.69
2023-01-11T09:41:54.289Z,100870.84
2023-01-11T09:44:25.505Z,100855.06
2023-01-11T09:46:56.708Z,100860.97
2023-01-11T09:49:30.538Z,100872.59
2023-01-11T09:52:09.704Z,100875.16
2023-01-11T09:54:36.784Z,100876.78
2023-01-11T09:57:26.740Z,100876.78
2023-01-11T10:00:07.065Z,100880.56
2023-01-11T10:02:59.255Z,100892.13
2023-01-11T10:06:01.587Z,100898.59
2023-01-11T10:18:30.648Z,100897.16
2023-01-11T10:18:44.498Z,100899.53
2023-01-11T10:21:13.419Z,100900.34
2023-01-11T10:23:42.157Z,100902.59
2023-01-11T10:26:23.520Z,100900.59
2023-01-11T10:29:19.842Z,100901.81
2023-01-11T10:33:02.173Z,100902.75
2023-01-11T10:35:34.866Z,100896.44
2023-01-11T10:38:31.264Z,100905.53
2023-01-11T10:41:12.090Z,100907.41
2023-01-11T10:43:43.439Z,100894.50
2023-01-11T10:46:20.940Z,100893.38
2023-01-11T10:48:48.137Z,100894.78
2023-01-11T10:51:38.756Z,100888.06
2023-01-11T10:54:20.547Z,100907.56
2023-01-11T10:57:11.447Z,100906.84
2023-01-11T10:59:38.390Z,100904.84
2023-01-11T11:02:17.244Z,100918.41
2023-01-11T11:04:59.247Z,100914.75
2023-01-11T11:07:34.420Z,100917.97
2023-01-11T11:10:51.505Z,100911.41
2023-01-11T11:13:33.777Z,100909.97
2023-01-11T11:16:22.786Z,100919.81
2023-01-11T11:18:51.496Z,100922.78
2023-01-11T11:21:24.315Z,100923.78
2023-01-11T11:24:03.003Z,100909.34
2023-01-11T11:26:38.465Z,100905.81
2023-01-11T11:29:09.284Z,100911.44
2023-01-11T11:31:42.741Z,100911.25
2023-01-11T11:34:21.165Z,100918.25
2023-01-11T11:36:50.389Z,100923.91
2023-01-11T11:39:29.092Z,100928.47
2023-01-11T11:41:57.984Z,100932.44
2023-01-11T11:44:27.391Z,100939.38
2023-01-11T11:47:05.659Z,100921.81
2023-01-11T11:49:34.502Z,100925.97
2023-01-11T11:52:02.986Z,100942.22
2023-01-11T11:54:50.552Z,100939.75
2023-01-11T11:57:39.620Z,100944.13
2023-01-11T12:00:09.546Z,100940.44
2023-01-11T12:02:38.875Z,100940.94
2023-01-11T12:05:08.578Z,100925.94
2023-01-11T12:07:54.383Z,100924.03
2023-01-11T12:10:25.193Z,100936.31
2023-01-11T12:12:59.923Z,100928.31
2023-01-11T12:15:28.892Z,100940.88
2023-01-11T12:17:56.858Z,100937.59
2023-01-11T12:20:23.690Z,100947.28
2023-01-11T12:22:53.782Z,100945.88
2023-01-11T12:25:22.057Z,100935.50
2023-01-11T12:28:07.451Z,100938.84
2023-01-11T12:31:12.780Z,100940.31
2023-01-11T12:34:06.893Z,100937.72
2023-01-11T12:36:52.231Z,100936.50
2023-01-11T12:39:35.060Z,100904.38
2023-01-11T12:42:20.328Z,100928.94
2023-01-11T12:44:53.258Z,100908.81
2023-01-11T12:47:46.221Z,100905.31
2023-01-11T12:50:20.687Z,100906.94
2023-01-11T12:52:56.622Z,100897.03
2023-01-11T12:55:26.139Z,100910.31
2023-01-11T12:58:01.883Z,100905.09
2023-01-11T13:00:43.562Z,100913.19
2023-01-11T13:03:27.807Z,100921.31
2023-01-11T13:06:16.063Z,100926.56
2023-01-11T13:08:54.434Z,100930.28
2023-01-11T13:11:56.887Z,100925.88
2023-01-11T13:14:45.178Z,100927.84
2023-01-11T13:17:22.418Z,100925.59
2023-01-11T13:20:19.621Z,100925.16
2023-01-11T13:22:50.433Z,100932.41
2023-01-11T13:25:24.677Z,100934.91
2023-01-11T13:27:53.232Z,100935.22
2023-01-11T13:30:24.352Z,100942.31
2023-01-11T13:33:03.486Z,100935.53
2023-01-11T13:35:56.871Z,100934.56
2023-01-11T13:38:35.643Z,100932.66
2023-01-11T13:41:31.017Z,100936.81
2023-01-11T13:44:10.171Z,100929.78
2023-01-11T13:46:43.523Z,100932.78
2023-01-11T13:49:28.552Z,100935.06
2023-01-11T13:52:10.533Z,100925.13
2023-01-11T13:55:14.395Z,100931.69
2023-01-11T13:58:10.134Z,100928.53
2023-01-11T14:00:51.943Z,100928.94
2023-01-11T14:03:21.899Z,100928.19
2023-01-11T14:05:54.902Z,100937.09
2023-01-11T14:08:46.548Z,100926.25
2023-01-11T14:11:29.358Z,100939.50
2023-01-11T14:14:15.617Z,100937.75
2023-01-11T14:16:57.109Z,100953.06
2023-01-11T14:19:34.903Z,100954.94
2023-01-11T14:22:26.319Z,100956.00
2023-01-11T14:24:59.040Z,100948.50
2023-01-11T14:27:48.714Z,100959.81
2023-01-11T14:30:29.430Z,100962.03
2023-01-11T14:33:16.217Z,100960.75
2023-01-11T14:35:59.093Z,100949.25
2023-01-11T14:38:54.946Z,100957.41
2023-01-11T14:41:30.836Z,100956.88
2023-01-11T14:44:16.204Z,100961.09
2023-01-11T14:46:51.368Z,100951.31
2023-01-11T14:49:18.375Z,100954.75
2023-01-11T14:51:45.671Z,100956.97
2023-01-11T14:54:13.979Z,100968.00
2023-01-11T14:56:43.900Z,100975.81
2023-01-11T14:59:25.889Z,100971.38
2023-01-11T15:02:05.119Z,100958.44
2023-01-11T15:04:58.507Z,100961.84
2023-01-11T15:07:31.441Z,100959.88
2023-01-11T15:10:00.276Z,100954.34
2023-01-11T15:12:38.559Z,100966.91
2023-01-11T15:15:06.299Z,100962.44
2023-01-11T15:17:52.423Z,100972.63
2023-01-11T15:20:23.383Z,100973.91
2023-01-11T15:22:58.645Z,100978.41
2023-01-11T15:25:31.750Z,100984.47
2023-01-11T15:28:04.309Z,100987.56
2023-01-11T15:30:31.743Z,100984.88
2023-01-11T15:33:17.276Z,100988.97
2023-01-11T15:35:56.466Z,100988.91
2023-01-11T15:38:44.398Z,100997.00
2023-01-11T15:41:36.347Z,100983.16
2023-01-11T15:44:10.696Z,100979.34
2023-01-11T15:47:05.673Z,100978.50
2023-01-11T15:50:06.599Z,100990.81
2023-01-11T15:52:36.291Z,100985.16
2023-01-11T15:55:40.734Z,100992.81
2023-01-11T15:58:19.874Z,100984.75
2023-01-11T16:01:08.097Z,100987.28
2023-01-11T16:04:00.303Z,100998.13
2023-01-11T16:06:40.479Z,100995.88
2023-01-11T16:09:48.760Z,101004.59
2023-01-11T16:12:15.582Z,101003.97
2023-01-11T16:15:01.452Z,101004.72
2023-01-11T16:17:28.947Z,101011.16
2023-01-11T16:19:57.163Z,101017.38
2023-01-11T16:22:28.440Z,101016.53
2023-01-11T16:25:01.382Z,101018.91
2023-01-11T16:27:31.251Z,101012.44
2023-01-11T16:29:58.409Z,101015.53
2023-01-11T16:32:32.904Z,101021.94
2023-01-11T16:35:15.745Z,101008.19
2023-01-11T16:37:45.776Z,101010.53
2023-01-11T16:40:22.147Z,101020.81
2023-01-11T16:43:00.239Z,101026.63
2023-01-11T16:45:42.052Z,101031.78
2023-01-11T16:48:20.203Z,101027.75
2023-01-11T16:50:58.128Z,101036.38
2023-01-11T16:53:26.433Z,101035.84
2023-01-11T16:55:56.598Z,101026.81
2023-01-11T16:58:35.354Z,101033.50
2023-01-11T17:01:08.369Z,101039.25
2023-01-11T17:03:38.501Z,101032.22
2023-01-11T17:06:08.419Z,101037.88
2023-01-11T17:08:40.766Z,101037.34
2023-01-11T17:11:07.785Z,101032.59
2023-01-11T17:13:58.235Z,101027.47
2023-01-11T17:16:28.571Z,101032.78
2023-01-11T17:18:55.987Z,101027.19
2023-01-11T17:21:25.729Z,101015.81
2023-01-11T17:23:55.533Z,101030.25
2023-01-11T17:26:25.033Z,101036.44
2023-01-11T17:28:58.665Z,101035.16
2023-01-11T17:31:28.643Z,101029.97
2023-01-11T17:34:10.510Z,101035.63
2023-01-11T17:36:37.540Z,101051.16
2023-01-11T17:39:05.785Z,101041.00
2023-01-11T17:41:51.112Z,101043.28
2023-01-11T17:44:40.530Z,101030.44
2023-01-11T17:47:11.350Z,101023.66
2023-01-11T17:49:39.208Z,101015.53
2023-01-11T17:52:23.267Z,101008.25
2023-01-11T17:55:14.582Z,101015.31
2023-01-11T17:57:41.553Z,101000.06
2023-01-11T18:00:26.731Z,100995.47
2023-01-11T18:02:54.076Z,100996.75
2023-01-11T18:05:25.484Z,100995.03
2023-01-11T18:07:58.262Z,100995.31
2023-01-11T18:10:28.003Z,100981.63
2023-01-11T18:12:56.634Z,100981.88
2023-01-11T18:15:35.096Z,100978.72
2023-01-11T18:18:02.330Z,100977.69
2023-01-11T18:20:37.277Z,100997.19
2023-01-11T18:23:22.808Z,100989.88
2023-01-11T18:25:50.126Z,100989.03
2023-01-11T18:28:26.362Z,100992.09
2023-01-11T18:30:54.469Z,100982.53
2023-01-11T18:33:23.468Z,100990.81
2023-01-11T18:36:01.820Z,100993.25
2023-01-11T18:38:32.163Z,100987.16
2023-01-11T18:41:22.459Z,100995.53
2023-01-11T18:43:49.231Z,101001.22
2023-01-11T18:46:19.169Z,101005.53
2023-01-11T18:48:46.448Z,100986.94
2023-01-11T18:51:18.614Z,100987.19
2023-01-11T18:53:48.012Z,100965.31
2023-01-11T18:56:16.464Z,100962.72
2023-01-11T18:58:43.520Z,100957.28
2023-01-11T19:01:10.788Z,100958.19
2023-01-11T19:03:38.115Z,100964.94
2023-01-11T19:06:05.992Z,100954.50
2023-01-11T19:08:32.865Z,100953.50
2023-01-11T19:10:59.725Z,100945.66
2023-01-11T19:13:26.497Z,100940.06
2023-01-11T19:15:53.317Z,100923.38
2023-01-11T19:18:20.180Z,100931.44
2023-01-11T19:20:46.944Z,100926.50
2023-01-11T19:23:13.687Z,100923.41
2023-01-11T19:25:41.582Z,100925.13
2023-01-11T19:28:08.486Z,100909.41
2023-01-11T19:30:38.816Z,100922.66
2023-01-11T19:33:05.589Z,100924.53
2023-01-11T19:35:32.393Z,100928.53
2023-01-11T19:37:59.195Z,100926.78
2023-01-11T19:40:26.198Z,100938.09
2023-01-11T19:42:52.998Z,100912.69
2023-01-11T19:45:21.099Z,100938.00
2023-01-11T19:47:47.874Z,100935.50
2023-01-11T19:50:17.104Z,100947.09
2023-01-11T19:52:45.127Z,100921.94
2023-01-11T19:55:11.824Z,100925.44
2023-01-11T19:57:40.485Z,100917.50
2023-01-11T20:00:08.878Z,100907.00
2023-01-11T20:02:47.190Z,100895.66
2023-01-11T20:05:14.346Z,100906.69
2023-01-11T20:07:41.495Z,100921.31
2023-01-11T20:10:10.089Z,100902.94
2023-01-11T20:12:36.939Z,100897.19
2023-01-11T20:15:04.718Z,100880.38
2023-01-11T20:17:33.495Z,100898.72
2023-01-11T20:20:00.462Z,100895.88
2023-01-11T20:22:27.377Z,100898.78
2023-01-11T20:24:56.019Z,100897.50
2023-01-11T20:27:22.870Z,100879.69
2023-01-11T20:29:49.699Z,100873.16
2023-01-11T20:32:39.248Z,100864.28
2023-01-11T20:35:04.941Z,100887.44
2023-01-11T20:37:31.736Z,100886.03
2023-01-11T20:39:58.629Z,100899.78
2023-01-11T20:42:25.473Z,100903.72
2023-01-11T20:44:52.639Z,100901.28
2023-01-11T20:47:19.823Z,100912.16
2023-01-11T20:49:46.764Z,100890.66
2023-01-11T20:52:14.376Z,100898.19
2023-01-11T20:54:41.200Z,100904.09
2023-01-11T20:57:12.314Z,100897.09
2023-01-11T20:59:39.453Z,100892.75
2023-01-11T21:02:07.763Z,100911.44
2023-01-11T21:04:40.739Z,100904.56
2023-01-11T21:07:07.490Z,100883.81
2023-01-11T21:09:34.298Z,100884.84
2023-01-11T21:12:04.915Z,100891.50
2023-01-11T21:14:31.733Z,100887.38
2023-01-11T21:16:58.927Z,100885.13
2023-01-11T21:19:26.599Z,100874.69
2023-01-11T21:21:53.367Z,100890.25
2023-01-11T21:24:21.108Z,100875.44
2023-01-11T21:26:48.344Z,100854.50
2023-01-11T21:29:15.209Z,100860.44
2023-01-11T21:31:42.306Z,100861.13
2023-01-11T21:34:11.587Z,100886.25
2023-01-11T21:36:39.184Z,100859.66
2023-01-11T21:39:07.259Z,100862.84
2023-01-11T21:41:52.619Z,100851.59
2023-01-11T21:44:20.472Z,100859.38
2023-01-11T21:46:47.474Z,100858.13
2023-01-11T21:49:15.173Z,100854.84
2023-01-11T21:51:42.890Z,100859.75
2023-01-11T21:54:15.196Z,100834.19
2023-01-11T21:56:42.114Z,100859.47
2023-01-11T21:59:09.396Z,100852.84
2023-01-11T22:01:37.544Z,100869.84
2023-01-11T22:04:08.283Z,100866.28
2023-01-11T22:06:36.835Z,100875.97
2023-01-11T22:09:05.090Z,100882.69
2023-01-11T22:11:34.810Z,100890.94
2023-01-11T22:14:02.884Z,100878.09
2023-01-11T22:16:31.109Z,100882.75
2023-01-11T22:18:59.677Z,100893.47
2023-01-11T22:21:26.829Z,100888.06
2023-01-11T22:23:56.083Z,100897.66
2023-01-11T22:26:23.268Z,100904.53
2023-01-11T22:29:12.055Z,100904.03
2023-01-11T22:31:40.893Z,100910.56
2023-01-11T22:34:08.240Z,100893.91
2023-01-11T22:36:35.167Z,100902.78
2023-01-11T22:39:01.962Z,100899.75
2023-01-11T22:41:28.884Z,100906.31
2023-01-11T22:43:55.658Z,100921.19
2023-01-11T22:46:25.623Z,100904.28
2023-01-11T22:48:53.272Z,100912.59
2023-01-11T22:51:24.460Z,100897.75
2023-01-11T22:53:52.823Z,100885.34
2023-01-11T22:56:26.174Z,100879.41
2023-01-11T22:58:53.935Z,100886.38
2023-01-11T23:01:25.470Z,100886.88
2023-01-11T23:03:53.484Z,100889.59
2023-01-11T23:06:23.664Z,100868.47
2023-01-11T23:08:50.700Z,100876.72
2023-01-11T23:11:38.025Z,100869.41
2023-01-11T23:14:07.400Z,100864.03
2023-01-11T23:16:35.144Z,100854.94
2023-01-11T23:19:06.721Z,100857.88
2023-01-11T23:21:33.567Z,100854.44
2023-01-11T23:24:04.016Z,100854.63
2023-01-11T23:26:31.193Z,100855.19
2023-01-11T23:28:57.992Z,100854.56
2023-01-11T23:31:26.222Z,100852.81
2023-01-11T23:33:55.205Z,100860.97
2023-01-11T23:36:23.212Z,100852.06
2023-01-11T23:38:51.054Z,100863.69
2023-01-11T23:41:38.054Z,100848.69
2023-01-11T23:44:07.224Z,100862.13
2023-01-11T23:46:52.911Z,100862.63
2023-01-11T23:49:19.738Z,100847.22
2023-01-11T23:51:46.690Z,100858.31
2023-01-11T23:54:13.791Z,100848.00
2023-01-11T23:56:40.976Z,100850.56
2023-01-11T23:59:07.956Z,100852.13
